sensor_id;sensor_type;location;lat;lon;timestamp;P1;durP1;ratioP1;P2;durP2;ratioP2
39982;SDS011;25670;44.782;10.356;2023-03-30T00:01:35;6.57;;;4.18;;
39982;SDS011;25670;44.782;10.356;2023-03-30T00:04:01;6.03;;;4.10;;
39982;SDS011;25670;44.782;10.356;2023-03-30T00:06:28;4.78;;;3.42;;
39982;SDS011;25670;44.782;10.356;2023-03-30T00:08:54;6.43;;;3.80;;
39982;SDS011;25670;44.782;10.356;2023-03-30T00:11:24;4.75;;;3.92;;
39982;SDS011;25670;44.782;10.356;2023-03-30T00:13:51;6.25;;;4.93;;
39982;SDS011;25670;44.782;10.356;2023-03-30T00:16:19;5.68;;;4.53;;
39982;SDS011;25670;44.782;10.356;2023-03-30T00:18:46;6.95;;;5.68;;
39982;SDS011;25670;44.782;10.356;2023-03-30T00:21:12;7.70;;;5.63;;
39982;SDS011;25670;44.782;10.356;2023-03-30T00:23:42;9.25;;;5.05;;
39982;SDS011;25670;44.782;10.356;2023-03-30T00:26:11;9.45;;;5.20;;
39982;SDS011;25670;44.782;10.356;2023-03-30T00:28:37;7.57;;;5.10;;
39982;SDS011;25670;44.782;10.356;2023-03-30T00:31:04;11.60;;;5.70;;
39982;SDS011;25670;44.782;10.356;2023-03-30T00:33:31;12.93;;;5.60;;
39982;SDS011;25670;44.782;10.356;2023-03-30T00:35:58;6.72;;;5.72;;
39982;SDS011;25670;44.782;10.356;2023-03-30T00:38:24;9.70;;;5.03;;
39982;SDS011;25670;44.782;10.356;2023-03-30T00:40:53;7.80;;;5.78;;
39982;SDS011;25670;44.782;10.356;2023-03-30T00:43:23;6.22;;;5.60;;
39982;SDS011;25670;44.782;10.356;2023-03-30T00:45:50;9.02;;;5.13;;
39982;SDS011;25670;44.782;10.356;2023-03-30T00:48:17;6.43;;;5.85;;
39982;SDS011;25670;44.782;10.356;2023-03-30T00:50:51;6.32;;;5.32;;
39982;SDS011;25670;44.782;10.356;2023-03-30T00:53:23;12.00;;;5.90;;
39982;SDS011;25670;44.782;10.356;2023-03-30T00:55:55;10.10;;;5.68;;
39982;SDS011;25670;44.782;10.356;2023-03-30T00:58:23;7.47;;;5.25;;
39982;SDS011;25670;44.782;10.356;2023-03-30T01:00:52;15.45;;;5.63;;
39982;SDS011;25670;44.782;10.356;2023-03-30T01:03:32;10.48;;;5.97;;
39982;SDS011;25670;44.782;10.356;2023-03-30T01:06:02;9.15;;;5.82;;
39982;SDS011;25670;44.782;10.356;2023-03-30T01:08:32;6.53;;;5.93;;
39982;SDS011;25670;44.782;10.356;2023-03-30T01:10:59;11.05;;;6.32;;
39982;SDS011;25670;44.782;10.356;2023-03-30T01:13:27;11.63;;;6.93;;
39982;SDS011;25670;44.782;10.356;2023-03-30T01:15:58;18.30;;;6.93;;
39982;SDS011;25670;44.782;10.356;2023-03-30T01:18:33;7.53;;;5.70;;
39982;SDS011;25670;44.782;10.356;2023-03-30T01:27:10;6.68;;;6.05;;
39982;SDS011;25670;44.782;10.356;2023-03-30T01:35:26;7.57;;;6.60;;
39982;SDS011;25670;44.782;10.356;2023-03-30T01:40:58;8.63;;;6.63;;
39982;SDS011;25670;44.782;10.356;2023-03-30T01:49:00;9.35;;;4.72;;
39982;SDS011;25670;44.782;10.356;2023-03-30T01:51:32;9.77;;;5.68;;
39982;SDS011;25670;44.782;10.356;2023-03-30T01:54:08;6.93;;;6.25;;
39982;SDS011;25670;44.782;10.356;2023-03-30T01:57:22;7.60;;;5.35;;
39982;SDS011;25670;44.782;10.356;2023-03-30T01:59:41;6.07;;;5.43;;
39982;SDS011;25670;44.782;10.356;2023-03-30T02:02:16;7.82;;;6.13;;
39982;SDS011;25670;44.782;10.356;2023-03-30T02:04:45;6.78;;;6.25;;
39982;SDS011;25670;44.782;10.356;2023-03-30T02:07:14;9.20;;;6.20;;
39982;SDS011;25670;44.782;10.356;2023-03-30T02:09:47;6.13;;;5.60;;
39982;SDS011;25670;44.782;10.356;2023-03-30T02:12:15;7.00;;;6.35;;
39982;SDS011;25670;44.782;10.356;2023-03-30T02:14:45;6.68;;;6.07;;
39982;SDS011;25670;44.782;10.356;2023-03-30T02:17:17;6.70;;;6.05;;
39982;SDS011;25670;44.782;10.356;2023-03-30T02:19:47;6.57;;;5.97;;
39982;SDS011;25670;44.782;10.356;2023-03-30T02:22:15;7.32;;;5.75;;
39982;SDS011;25670;44.782;10.356;2023-03-30T02:24:44;9.63;;;6.57;;
39982;SDS011;25670;44.782;10.356;2023-03-30T02:27:12;7.65;;;6.57;;
39982;SDS011;25670;44.782;10.356;2023-03-30T02:29:41;7.20;;;6.25;;
39982;SDS011;25670;44.782;10.356;2023-03-30T02:32:13;6.45;;;5.93;;
39982;SDS011;25670;44.782;10.356;2023-03-30T02:34:53;8.98;;;7.05;;
39982;SDS011;25670;44.782;10.356;2023-03-30T02:46:31;7.22;;;6.53;;
39982;SDS011;25670;44.782;10.356;2023-03-30T02:49:11;7.47;;;6.78;;
39982;SDS011;25670;44.782;10.356;2023-03-30T02:57:36;10.75;;;6.47;;
39982;SDS011;25670;44.782;10.356;2023-03-30T03:03:24;11.20;;;7.32;;
39982;SDS011;25670;44.782;10.356;2023-03-30T03:05:56;12.35;;;7.57;;
39982;SDS011;25670;44.782;10.356;2023-03-30T03:08:34;9.80;;;7.63;;
39982;SDS011;25670;44.782;10.356;2023-03-30T03:11:06;10.35;;;8.15;;
39982;SDS011;25670;44.782;10.356;2023-03-30T03:13:33;9.65;;;8.75;;
39982;SDS011;25670;44.782;10.356;2023-03-30T03:16:04;8.70;;;7.95;;
39982;SDS011;25670;44.782;10.356;2023-03-30T03:18:33;15.10;;;8.32;;
39982;SDS011;25670;44.782;10.356;2023-03-30T03:21:00;8.85;;;7.32;;
39982;SDS011;25670;44.782;10.356;2023-03-30T03:23:27;9.18;;;7.20;;
39982;SDS011;25670;44.782;10.356;2023-03-30T03:25:55;12.30;;;7.80;;
39982;SDS011;25670;44.782;10.356;2023-03-30T03:28:22;13.35;;;8.15;;
39982;SDS011;25670;44.782;10.356;2023-03-30T03:30:56;12.10;;;7.72;;
39982;SDS011;25670;44.782;10.356;2023-03-30T03:33:24;11.05;;;7.30;;
39982;SDS011;25670;44.782;10.356;2023-03-30T03:36:04;10.23;;;7.13;;
39982;SDS011;25670;44.782;10.356;2023-03-30T03:38:33;8.32;;;6.68;;
39982;SDS011;25670;44.782;10.356;2023-03-30T03:41:00;7.57;;;6.88;;
39982;SDS011;25670;44.782;10.356;2023-03-30T03:43:29;12.73;;;7.30;;
39982;SDS011;25670;44.782;10.356;2023-03-30T03:45:56;8.57;;;7.50;;
39982;SDS011;25670;44.782;10.356;2023-03-30T03:48:23;15.70;;;7.53;;
39982;SDS011;25670;44.782;10.356;2023-03-30T03:50:51;6.72;;;6.22;;
39982;SDS011;25670;44.782;10.356;2023-03-30T03:53:23;11.82;;;6.80;;
39982;SDS011;25670;44.782;10.356;2023-03-30T03:55:55;6.68;;;6.07;;
39982;SDS011;25670;44.782;10.356;2023-03-30T03:58:21;6.15;;;5.63;;
39982;SDS011;25670;44.782;10.356;2023-03-30T04:00:49;10.02;;;6.28;;
39982;SDS011;25670;44.782;10.356;2023-03-30T04:03:15;9.02;;;6.47;;
39982;SDS011;25670;44.782;10.356;2023-03-30T04:05:43;12.43;;;6.40;;
39982;SDS011;25670;44.782;10.356;2023-03-30T04:08:11;7.88;;;5.65;;
39982;SDS011;25670;44.782;10.356;2023-03-30T04:10:39;6.88;;;6.13;;
39982;SDS011;25670;44.782;10.356;2023-03-30T04:13:26;11.20;;;6.32;;
39982;SDS011;25670;44.782;10.356;2023-03-30T04:18:58;9.10;;;5.68;;
39982;SDS011;25670;44.782;10.356;2023-03-30T04:21:42;6.65;;;5.57;;
39982;SDS011;25670;44.782;10.356;2023-03-30T04:24:49;6.50;;;6.00;;
39982;SDS011;25670;44.782;10.356;2023-03-30T04:27:34;10.13;;;5.63;;
39982;SDS011;25670;44.782;10.356;2023-03-30T04:30:20;7.38;;;5.97;;
39982;SDS011;25670;44.782;10.356;2023-03-30T04:33:10;8.25;;;6.18;;
39982;SDS011;25670;44.782;10.356;2023-03-30T04:35:59;9.23;;;6.22;;
39982;SDS011;25670;44.782;10.356;2023-03-30T04:38:44;6.03;;;5.43;;
39982;SDS011;25670;44.782;10.356;2023-03-30T04:41:40;6.32;;;5.47;;
39982;SDS011;25670;44.782;10.356;2023-03-30T04:44:22;6.80;;;5.57;;
39982;SDS011;25670;44.782;10.356;2023-03-30T04:47:01;6.45;;;5.85;;
39982;SDS011;25670;44.782;10.356;2023-03-30T04:49:48;8.95;;;6.18;;
39982;SDS011;25670;44.782;10.356;2023-03-30T04:52:33;6.40;;;5.80;;
39982;SDS011;25670;44.782;10.356;2023-03-30T04:55:19;12.98;;;6.20;;
39982;SDS011;25670;44.782;10.356;2023-03-30T04:58:09;9.02;;;6.32;;
39982;SDS011;25670;44.782;10.356;2023-03-30T05:00:59;10.18;;;6.22;;
39982;SDS011;25670;44.782;10.356;2023-03-30T05:03:49;11.13;;;6.05;;
39982;SDS011;25670;44.782;10.356;2023-03-30T05:06:34;6.75;;;5.85;;
39982;SDS011;25670;44.782;10.356;2023-03-30T05:09:26;6.72;;;6.10;;
39982;SDS011;25670;44.782;10.356;2023-03-30T05:12:06;5.82;;;5.25;;
39982;SDS011;25670;44.782;10.356;2023-03-30T05:14:55;9.20;;;5.75;;
39982;SDS011;25670;44.782;10.356;2023-03-30T05:17:44;8.82;;;5.88;;
39982;SDS011;25670;44.782;10.356;2023-03-30T05:20:29;7.78;;;5.18;;
39982;SDS011;25670;44.782;10.356;2023-03-30T05:23:14;6.05;;;5.45;;
39982;SDS011;25670;44.782;10.356;2023-03-30T05:25:50;6.63;;;5.00;;
39982;SDS011;25670;44.782;10.356;2023-03-30T05:28:35;7.63;;;4.32;;
39982;SDS011;25670;44.782;10.356;2023-03-30T05:31:15;10.10;;;5.03;;
39982;SDS011;25670;44.782;10.356;2023-03-30T05:33:59;6.93;;;4.40;;
39982;SDS011;25670;44.782;10.356;2023-03-30T05:36:49;11.02;;;3.97;;
39982;SDS011;25670;44.782;10.356;2023-03-30T05:39:35;10.02;;;3.72;;
39982;SDS011;25670;44.782;10.356;2023-03-30T05:42:21;6.60;;;3.55;;
39982;SDS011;25670;44.782;10.356;2023-03-30T05:45:00;6.95;;;5.10;;
39982;SDS011;25670;44.782;10.356;2023-03-30T05:47:45;18.27;;;5.90;;
39982;SDS011;25670;44.782;10.356;2023-03-30T05:50:34;12.20;;;5.32;;
39982;SDS011;25670;44.782;10.356;2023-03-30T05:53:03;10.60;;;5.38;;
39982;SDS011;25670;44.782;10.356;2023-03-30T05:55:58;6.65;;;4.43;;
39982;SDS011;25670;44.782;10.356;2023-03-30T05:58:38;7.85;;;4.90;;
39982;SDS011;25670;44.782;10.356;2023-03-30T06:01:22;10.98;;;5.00;;
39982;SDS011;25670;44.782;10.356;2023-03-30T06:03:50;11.35;;;5.10;;
39982;SDS011;25670;44.782;10.356;2023-03-30T06:06:17;12.50;;;5.32;;
39982;SDS011;25670;44.782;10.356;2023-03-30T06:08:47;10.55;;;4.90;;
39982;SDS011;25670;44.782;10.356;2023-03-30T06:11:17;7.35;;;5.50;;
39982;SDS011;25670;44.782;10.356;2023-03-30T06:13:49;8.10;;;5.50;;
39982;SDS011;25670;44.782;10.356;2023-03-30T06:16:15;13.63;;;5.22;;
39982;SDS011;25670;44.782;10.356;2023-03-30T06:18:42;11.02;;;5.50;;
39982;SDS011;25670;44.782;10.356;2023-03-30T06:21:12;6.93;;;5.28;;
39982;SDS011;25670;44.782;10.356;2023-03-30T06:23:51;11.80;;;5.10;;
39982;SDS011;25670;44.782;10.356;2023-03-30T06:26:20;15.38;;;6.20;;
39982;SDS011;25670;44.782;10.356;2023-03-30T06:28:48;14.25;;;5.47;;
39982;SDS011;25670;44.782;10.356;2023-03-30T06:31:14;9.43;;;5.15;;
39982;SDS011;25670;44.782;10.356;2023-03-30T06:33:42;8.95;;;5.50;;
39982;SDS011;25670;44.782;10.356;2023-03-30T06:36:10;11.98;;;6.70;;
39982;SDS011;25670;44.782;10.356;2023-03-30T06:38:39;8.60;;;5.30;;
39982;SDS011;25670;44.782;10.356;2023-03-30T06:41:06;9.35;;;5.00;;
39982;SDS011;25670;44.782;10.356;2023-03-30T06:43:37;13.82;;;6.25;;
39982;SDS011;25670;44.782;10.356;2023-03-30T06:46:30;13.07;;;6.78;;
39982;SDS011;25670;44.782;10.356;2023-03-30T06:48:58;9.45;;;5.95;;
39982;SDS011;25670;44.782;10.356;2023-03-30T06:51:53;13.77;;;6.45;;
39982;SDS011;25670;44.782;10.356;2023-03-30T06:54:20;10.57;;;6.07;;
39982;SDS011;25670;44.782;10.356;2023-03-30T06:56:56;8.82;;;5.47;;
39982;SDS011;25670;44.782;10.356;2023-03-30T06:59:23;9.18;;;6.53;;
39982;SDS011;25670;44.782;10.356;2023-03-30T07:02:11;12.50;;;6.10;;
39982;SDS011;25670;44.782;10.356;2023-03-30T07:04:56;23.60;;;8.27;;
39982;SDS011;25670;44.782;10.356;2023-03-30T07:07:29;17.30;;;6.47;;
39982;SDS011;25670;44.782;10.356;2023-03-30T07:09:56;15.20;;;6.10;;
39982;SDS011;25670;44.782;10.356;2023-03-30T07:12:22;6.35;;;5.85;;
39982;SDS011;25670;44.782;10.356;2023-03-30T07:14:50;12.48;;;6.32;;
39982;SDS011;25670;44.782;10.356;2023-03-30T07:17:16;8.77;;;6.18;;
39982;SDS011;25670;44.782;10.356;2023-03-30T07:19:43;7.55;;;6.20;;
39982;SDS011;25670;44.782;10.356;2023-03-30T07:22:10;12.85;;;7.20;;
39982;SDS011;25670;44.782;10.356;2023-03-30T07:24:36;15.55;;;7.22;;
39982;SDS011;25670;44.782;10.356;2023-03-30T07:27:03;24.73;;;7.65;;
39982;SDS011;25670;44.782;10.356;2023-03-30T07:29:30;13.13;;;6.72;;
39982;SDS011;25670;44.782;10.356;2023-03-30T07:31:57;15.43;;;7.05;;
39982;SDS011;25670;44.782;10.356;2023-03-30T07:34:23;11.68;;;7.35;;
39982;SDS011;25670;44.782;10.356;2023-03-30T07:36:53;17.35;;;7.05;;
39982;SDS011;25670;44.782;10.356;2023-03-30T07:39:20;12.57;;;7.28;;
39982;SDS011;25670;44.782;10.356;2023-03-30T07:41:49;11.98;;;6.88;;
39982;SDS011;25670;44.782;10.356;2023-03-30T07:44:16;17.92;;;7.03;;
39982;SDS011;25670;44.782;10.356;2023-03-30T07:46:42;12.10;;;6.63;;
39982;SDS011;25670;44.782;10.356;2023-03-30T07:49:14;17.42;;;7.32;;
39982;SDS011;25670;44.782;10.356;2023-03-30T07:51:41;9.05;;;6.13;;
39982;SDS011;25670;44.782;10.356;2023-03-30T07:54:18;9.55;;;6.90;;
39982;SDS011;25670;44.782;10.356;2023-03-30T07:56:58;15.93;;;6.72;;
39982;SDS011;25670;44.782;10.356;2023-03-30T07:59:24;14.82;;;7.88;;
39982;SDS011;25670;44.782;10.356;2023-03-30T08:01:55;13.40;;;8.85;;
39982;SDS011;25670;44.782;10.356;2023-03-30T08:04:57;9.07;;;5.82;;
39982;SDS011;25670;44.782;10.356;2023-03-30T08:07:38;19.10;;;6.30;;
39982;SDS011;25670;44.782;10.356;2023-03-30T08:10:13;13.05;;;7.03;;
39982;SDS011;25670;44.782;10.356;2023-03-30T08:12:39;14.48;;;6.85;;
39982;SDS011;25670;44.782;10.356;2023-03-30T08:15:06;11.45;;;7.60;;
39982;SDS011;25670;44.782;10.356;2023-03-30T08:17:32;16.00;;;6.80;;
39982;SDS011;25670;44.782;10.356;2023-03-30T08:19:59;12.82;;;6.10;;
39982;SDS011;25670;44.782;10.356;2023-03-30T08:22:26;10.07;;;6.78;;
39982;SDS011;25670;44.782;10.356;2023-03-30T08:24:52;13.15;;;5.88;;
39982;SDS011;25670;44.782;10.356;2023-03-30T08:27:19;14.55;;;6.35;;
39982;SDS011;25670;44.782;10.356;2023-03-30T08:29:46;9.57;;;5.63;;
39982;SDS011;25670;44.782;10.356;2023-03-30T08:32:13;10.27;;;6.88;;
39982;SDS011;25670;44.782;10.356;2023-03-30T08:34:40;11.07;;;6.63;;
39982;SDS011;25670;44.782;10.356;2023-03-30T08:37:07;17.88;;;7.05;;
39982;SDS011;25670;44.782;10.356;2023-03-30T08:39:34;10.02;;;6.32;;
39982;SDS011;25670;44.782;10.356;2023-03-30T08:47:15;9.63;;;5.63;;
39982;SDS011;25670;44.782;10.356;2023-03-30T08:53:03;8.65;;;5.00;;
39982;SDS011;25670;44.782;10.356;2023-03-30T08:58:01;4.68;;;4.22;;
39982;SDS011;25670;44.782;10.356;2023-03-30T09:06:14;5.90;;;4.60;;
39982;SDS011;25670;44.782;10.356;2023-03-30T09:08:50;15.68;;;4.30;;
39982;SDS011;25670;44.782;10.356;2023-03-30T09:11:23;11.40;;;5.53;;
39982;SDS011;25670;44.782;10.356;2023-03-30T09:13:58;9.05;;;4.70;;
39982;SDS011;25670;44.782;10.356;2023-03-30T09:16:43;6.90;;;4.10;;
39982;SDS011;25670;44.782;10.356;2023-03-30T09:19:18;13.25;;;4.93;;
39982;SDS011;25670;44.782;10.356;2023-03-30T09:21:52;7.53;;;4.70;;
39982;SDS011;25670;44.782;10.356;2023-03-30T09:24:23;7.95;;;4.30;;
39982;SDS011;25670;44.782;10.356;2023-03-30T09:27:39;7.35;;;4.60;;
39982;SDS011;25670;44.782;10.356;2023-03-30T09:29:48;9.93;;;5.75;;
39982;SDS011;25670;44.782;10.356;2023-03-30T09:37:36;13.57;;;6.18;;
39982;SDS011;25670;44.782;10.356;2023-03-30T09:42:57;6.75;;;6.15;;
39982;SDS011;25670;44.782;10.356;2023-03-30T09:45:32;16.80;;;6.13;;
39982;SDS011;25670;44.782;10.356;2023-03-30T09:48:06;13.95;;;6.03;;
39982;SDS011;25670;44.782;10.356;2023-03-30T09:50:37;13.15;;;6.20;;
39982;SDS011;25670;44.782;10.356;2023-03-30T09:53:06;8.50;;;6.30;;
39982;SDS011;25670;44.782;10.356;2023-03-30T09:55:53;10.65;;;5.80;;
39982;SDS011;25670;44.782;10.356;2023-03-30T09:58:25;8.70;;;5.17;;
39982;SDS011;25670;44.782;10.356;2023-03-30T10:03:41;10.57;;;4.57;;
39982;SDS011;25670;44.782;10.356;2023-03-30T10:06:14;7.07;;;5.30;;
39982;SDS011;25670;44.782;10.356;2023-03-30T10:11:20;7.05;;;5.22;;
39982;SDS011;25670;44.782;10.356;2023-03-30T10:14:00;11.02;;;5.22;;
39982;SDS011;25670;44.782;10.356;2023-03-30T10:16:27;10.65;;;5.50;;
39982;SDS011;25670;44.782;10.356;2023-03-30T10:19:01;4.75;;;3.03;;
39982;SDS011;25670;44.782;10.356;2023-03-30T10:21:38;4.63;;;4.25;;
39982;SDS011;25670;44.782;10.356;2023-03-30T10:24:21;7.72;;;3.92;;
39982;SDS011;25670;44.782;10.356;2023-03-30T10:26:50;6.18;;;3.60;;
39982;SDS011;25670;44.782;10.356;2023-03-30T10:29:20;6.00;;;1.70;;
39982;SDS011;25670;44.782;10.356;2023-03-30T10:31:51;6.20;;;1.77;;
39982;SDS011;25670;44.782;10.356;2023-03-30T10:34:37;6.97;;;1.55;;
39982;SDS011;25670;44.782;10.356;2023-03-30T10:37:08;7.18;;;1.08;;
39982;SDS011;25670;44.782;10.356;2023-03-30T10:39:41;3.67;;;1.30;;
39982;SDS011;25670;44.782;10.356;2023-03-30T10:42:15;2.93;;;1.80;;
39982;SDS011;25670;44.782;10.356;2023-03-30T10:44:55;3.08;;;1.13;;
39982;SDS011;25670;44.782;10.356;2023-03-30T10:47:36;2.80;;;0.90;;
39982;SDS011;25670;44.782;10.356;2023-03-30T10:50:26;5.30;;;0.90;;
39982;SDS011;25670;44.782;10.356;2023-03-30T10:58:11;4.72;;;1.05;;
39982;SDS011;25670;44.782;10.356;2023-03-30T11:01:09;6.47;;;1.05;;
39982;SDS011;25670;44.782;10.356;2023-03-30T11:03:41;4.43;;;1.15;;
39982;SDS011;25670;44.782;10.356;2023-03-30T11:08:41;3.65;;;1.23;;
39982;SDS011;25670;44.782;10.356;2023-03-30T11:11:13;5.60;;;0.90;;
39982;SDS011;25670;44.782;10.356;2023-03-30T11:13:56;2.55;;;0.80;;
39982;SDS011;25670;44.782;10.356;2023-03-30T11:19:23;8.65;;;1.95;;
39982;SDS011;25670;44.782;10.356;2023-03-30T11:24:43;3.47;;;1.00;;
39982;SDS011;25670;44.782;10.356;2023-03-30T11:40:55;2.97;;;0.82;;
39982;SDS011;25670;44.782;10.356;2023-03-30T11:43:48;3.13;;;0.70;;
39982;SDS011;25670;44.782;10.356;2023-03-30T11:57:43;4.60;;;1.50;;
39982;SDS011;25670;44.782;10.356;2023-03-30T12:11:44;5.80;;;0.85;;
39982;SDS011;25670;44.782;10.356;2023-03-30T12:17:41;4.97;;;0.93;;
39982;SDS011;25670;44.782;10.356;2023-03-30T12:23:23;4.55;;;1.00;;
39982;SDS011;25670;44.782;10.356;2023-03-30T12:26:20;3.75;;;1.25;;
39982;SDS011;25670;44.782;10.356;2023-03-30T12:31:15;3.80;;;0.90;;
39982;SDS011;25670;44.782;10.356;2023-03-30T12:34:04;5.03;;;1.13;;
39982;SDS011;25670;44.782;10.356;2023-03-30T12:39:10;2.53;;;1.27;;
39982;SDS011;25670;44.782;10.356;2023-03-30T12:41:47;3.20;;;1.25;;
39982;SDS011;25670;44.782;10.356;2023-03-30T12:44:19;3.58;;;0.93;;
39982;SDS011;25670;44.782;10.356;2023-03-30T12:49:56;3.08;;;1.02;;
39982;SDS011;25670;44.782;10.356;2023-03-30T12:55:05;7.25;;;1.00;;
39982;SDS011;25670;44.782;10.356;2023-03-30T13:05:23;3.05;;;1.10;;
39982;SDS011;25670;44.782;10.356;2023-03-30T13:07:56;3.33;;;0.93;;
39982;SDS011;25670;44.782;10.356;2023-03-30T13:13:00;2.60;;;1.05;;
39982;SDS011;25670;44.782;10.356;2023-03-30T13:20:29;1.85;;;0.77;;
39982;SDS011;25670;44.782;10.356;2023-03-30T13:23:41;1.77;;;0.80;;
39982;SDS011;25670;44.782;10.356;2023-03-30T13:25:51;2.13;;;0.95;;
39982;SDS011;25670;44.782;10.356;2023-03-30T13:31:29;4.95;;;0.82;;
39982;SDS011;25670;44.782;10.356;2023-03-30T13:36:59;6.45;;;0.88;;
39982;SDS011;25670;44.782;10.356;2023-03-30T13:39:37;5.07;;;0.98;;
39982;SDS011;25670;44.782;10.356;2023-03-30T13:47:50;2.40;;;1.10;;
39982;SDS011;25670;44.782;10.356;2023-03-30T13:50:23;9.38;;;1.38;;
39982;SDS011;25670;44.782;10.356;2023-03-30T13:52:53;1.92;;;0.75;;
39982;SDS011;25670;44.782;10.356;2023-03-30T13:57:48;2.95;;;1.00;;
39982;SDS011;25670;44.782;10.356;2023-03-30T14:02:53;2.42;;;1.00;;
39982;SDS011;25670;44.782;10.356;2023-03-30T14:05:21;9.10;;;1.08;;
39982;SDS011;25670;44.782;10.356;2023-03-30T14:07:49;4.13;;;1.23;;
39982;SDS011;25670;44.782;10.356;2023-03-30T14:10:18;4.25;;;0.63;;
39982;SDS011;25670;44.782;10.356;2023-03-30T14:12:46;1.98;;;0.60;;
39982;SDS011;25670;44.782;10.356;2023-03-30T14:15:21;3.60;;;1.45;;
39982;SDS011;25670;44.782;10.356;2023-03-30T14:17:57;2.92;;;0.95;;
39982;SDS011;25670;44.782;10.356;2023-03-30T14:20:44;6.18;;;1.30;;
39982;SDS011;25670;44.782;10.356;2023-03-30T14:23:26;3.55;;;0.90;;
39982;SDS011;25670;44.782;10.356;2023-03-30T14:25:59;5.30;;;1.23;;
39982;SDS011;25670;44.782;10.356;2023-03-30T14:28:39;6.07;;;1.10;;
39982;SDS011;25670;44.782;10.356;2023-03-30T14:31:11;3.35;;;0.90;;
39982;SDS011;25670;44.782;10.356;2023-03-30T14:33:42;4.20;;;0.63;;
39982;SDS011;25670;44.782;10.356;2023-03-30T14:36:09;2.80;;;1.00;;
39982;SDS011;25670;44.782;10.356;2023-03-30T14:38:39;4.82;;;1.15;;
39982;SDS011;25670;44.782;10.356;2023-03-30T14:41:17;5.57;;;0.82;;
39982;SDS011;25670;44.782;10.356;2023-03-30T14:44:05;4.47;;;1.02;;
39982;SDS011;25670;44.782;10.356;2023-03-30T14:46:37;3.35;;;0.80;;
39982;SDS011;25670;44.782;10.356;2023-03-30T14:49:24;2.97;;;1.23;;
39982;SDS011;25670;44.782;10.356;2023-03-30T14:52:54;1.63;;;0.70;;
39982;SDS011;25670;44.782;10.356;2023-03-30T14:54:54;3.15;;;0.95;;
39982;SDS011;25670;44.782;10.356;2023-03-30T14:57:22;2.42;;;0.70;;
39982;SDS011;25670;44.782;10.356;2023-03-30T14:59:58;5.00;;;0.75;;
39982;SDS011;25670;44.782;10.356;2023-03-30T15:02:30;5.35;;;0.80;;
39982;SDS011;25670;44.782;10.356;2023-03-30T15:04:57;4.55;;;0.60;;
39982;SDS011;25670;44.782;10.356;2023-03-30T15:07:28;6.55;;;1.10;;
39982;SDS011;25670;44.782;10.356;2023-03-30T15:09:57;4.43;;;1.13;;
39982;SDS011;25670;44.782;10.356;2023-03-30T15:12:25;3.22;;;0.75;;
39982;SDS011;25670;44.782;10.356;2023-03-30T15:14:58;4.47;;;0.80;;
39982;SDS011;25670;44.782;10.356;2023-03-30T15:17:26;4.97;;;1.00;;
39982;SDS011;25670;44.782;10.356;2023-03-30T15:19:55;4.57;;;0.85;;
39982;SDS011;25670;44.782;10.356;2023-03-30T15:22:33;3.38;;;1.00;;
39982;SDS011;25670;44.782;10.356;2023-03-30T15:25:06;1.55;;;0.70;;
39982;SDS011;25670;44.782;10.356;2023-03-30T15:27:36;7.50;;;1.20;;
39982;SDS011;25670;44.782;10.356;2023-03-30T15:30:04;4.80;;;1.25;;
39982;SDS011;25670;44.782;10.356;2023-03-30T15:32:32;4.50;;;1.00;;
39982;SDS011;25670;44.782;10.356;2023-03-30T15:35:04;4.20;;;0.80;;
39982;SDS011;25670;44.782;10.356;2023-03-30T15:37:50;3.13;;;0.82;;
39982;SDS011;25670;44.782;10.356;2023-03-30T15:48:04;5.55;;;1.00;;
39982;SDS011;25670;44.782;10.356;2023-03-30T15:50:33;4.60;;;3.10;;
39982;SDS011;25670;44.782;10.356;2023-03-30T15:53:01;6.95;;;3.72;;
39982;SDS011;25670;44.782;10.356;2023-03-30T15:55:28;11.95;;;6.05;;
39982;SDS011;25670;44.782;10.356;2023-03-30T15:57:57;10.57;;;7.82;;
39982;SDS011;25670;44.782;10.356;2023-03-30T16:00:27;13.38;;;5.85;;
39982;SDS011;25670;44.782;10.356;2023-03-30T16:02:59;7.63;;;3.75;;
39982;SDS011;25670;44.782;10.356;2023-03-30T16:05:27;11.68;;;8.82;;
39982;SDS011;25670;44.782;10.356;2023-03-30T16:07:56;13.48;;;9.57;;
39982;SDS011;25670;44.782;10.356;2023-03-30T16:10:30;13.25;;;8.00;;
39982;SDS011;25670;44.782;10.356;2023-03-30T16:12:58;15.68;;;8.93;;
39982;SDS011;25670;44.782;10.356;2023-03-30T16:15:27;8.93;;;7.90;;
39982;SDS011;25670;44.782;10.356;2023-03-30T16:17:55;8.25;;;4.88;;
39982;SDS011;25670;44.782;10.356;2023-03-30T16:20:26;14.93;;;6.50;;
39982;SDS011;25670;44.782;10.356;2023-03-30T16:22:54;8.63;;;4.55;;
39982;SDS011;25670;44.782;10.356;2023-03-30T16:25:22;8.75;;;7.43;;
39982;SDS011;25670;44.782;10.356;2023-03-30T16:27:51;19.90;;;10.82;;
39982;SDS011;25670;44.782;10.356;2023-03-30T16:30:18;13.85;;;10.18;;
39982;SDS011;25670;44.782;10.356;2023-03-30T16:32:59;13.53;;;9.17;;
39982;SDS011;25670;44.782;10.356;2023-03-30T16:35:26;11.77;;;10.02;;
39982;SDS011;25670;44.782;10.356;2023-03-30T16:37:52;15.43;;;9.57;;
39982;SDS011;25670;44.782;10.356;2023-03-30T16:43:01;12.15;;;8.95;;
39982;SDS011;25670;44.782;10.356;2023-03-30T16:45:28;11.40;;;9.48;;
39982;SDS011;25670;44.782;10.356;2023-03-30T16:47:54;12.55;;;8.48;;
39982;SDS011;25670;44.782;10.356;2023-03-30T16:50:28;14.27;;;8.05;;
39982;SDS011;25670;44.782;10.356;2023-03-30T16:53:07;19.65;;;9.30;;
39982;SDS011;25670;44.782;10.356;2023-03-30T16:55:35;15.30;;;9.63;;
39982;SDS011;25670;44.782;10.356;2023-03-30T16:58:03;10.68;;;8.20;;
39982;SDS011;25670;44.782;10.356;2023-03-30T17:00:31;20.25;;;9.43;;
39982;SDS011;25670;44.782;10.356;2023-03-30T17:03:02;8.25;;;6.03;;
39982;SDS011;25670;44.782;10.356;2023-03-30T17:05:37;7.80;;;5.70;;
39982;SDS011;25670;44.782;10.356;2023-03-30T17:08:13;5.30;;;4.70;;
39982;SDS011;25670;44.782;10.356;2023-03-30T17:10:44;9.73;;;5.68;;
39982;SDS011;25670;44.782;10.356;2023-03-30T17:13:11;8.57;;;6.60;;
39982;SDS011;25670;44.782;10.356;2023-03-30T17:15:51;14.23;;;6.82;;
39982;SDS011;25670;44.782;10.356;2023-03-30T17:18:19;11.25;;;4.75;;
39982;SDS011;25670;44.782;10.356;2023-03-30T17:20:50;14.50;;;5.10;;
39982;SDS011;25670;44.782;10.356;2023-03-30T17:23:18;8.13;;;2.70;;
39982;SDS011;25670;44.782;10.356;2023-03-30T17:25:47;7.07;;;1.98;;
39982;SDS011;25670;44.782;10.356;2023-03-30T17:28:15;7.63;;;1.52;;
39982;SDS011;25670;44.782;10.356;2023-03-30T17:30:44;3.47;;;0.87;;
39982;SDS011;25670;44.782;10.356;2023-03-30T17:33:14;5.32;;;1.42;;
39982;SDS011;25670;44.782;10.356;2023-03-30T17:35:41;6.07;;;1.25;;
39982;SDS011;25670;44.782;10.356;2023-03-30T17:38:13;2.53;;;1.38;;
39982;SDS011;25670;44.782;10.356;2023-03-30T17:40:41;3.05;;;0.88;;
39982;SDS011;25670;44.782;10.356;2023-03-30T17:43:09;5.93;;;1.17;;
39982;SDS011;25670;44.782;10.356;2023-03-30T17:45:36;2.97;;;1.13;;
39982;SDS011;25670;44.782;10.356;2023-03-30T17:48:04;2.53;;;0.88;;
39982;SDS011;25670;44.782;10.356;2023-03-30T17:50:36;3.35;;;1.27;;
39982;SDS011;25670;44.782;10.356;2023-03-30T17:55:45;2.65;;;0.75;;
39982;SDS011;25670;44.782;10.356;2023-03-30T17:58:14;2.28;;;1.15;;
39982;SDS011;25670;44.782;10.356;2023-03-30T18:00:53;2.72;;;0.70;;
39982;SDS011;25670;44.782;10.356;2023-03-30T18:03:21;1.08;;;0.60;;
39982;SDS011;25670;44.782;10.356;2023-03-30T18:05:48;4.25;;;1.17;;
39982;SDS011;25670;44.782;10.356;2023-03-30T18:08:18;1.63;;;0.85;;
39982;SDS011;25670;44.782;10.356;2023-03-30T18:10:47;1.67;;;0.50;;